Time;durP1;ratioP1;P1;durP2;ratioP2;P2;SDS_P1;SDS_P2;PMS_P1;PMS_P2;Temp;Humidity;BMP_temperature;BMP_pressure;BME280_temperature;BME280_humidity;BME280_pressure;Samples;Min_cycle;Max_cycle;Signal;HPM_P1;HPM_P2
2022/05/27 00:00:48;;;;;;;;;;;;;;;12.85;100.00;99444.06;5062938;28;20377;-89
2022/05/27 00:03:16;;;;;;;;;;;;;;;12.72;100.00;99443.94;5079809;28;20408;-90
2022/05/27 00:05:43;;;;;;;;;;;;;;;12.54;100.00;99443.47;5062951;28;20302;-91
2022/05/27 00:08:10;;;;;;;;;;;;;;;12.54;100.00;99447.03;5063005;28;20073;-91
2022/05/27 00:10:38;;;;;;;;;;;;;;;12.49;100.00;99453.16;5063100;28;19931;-90
2022/05/27 00:13:05;;;;;;;;;;;;;;;12.85;100.00;99455.28;5079767;28;19986;-90
2022/05/27 00:15:33;;;;;;;;;;;;;;;12.62;100.00;99454.09;5079490;28;19931;-89
2022/05/27 00:18:00;;;;;;;;;;;;;;;12.87;100.00;99461.28;5079315;28;20022;-91
2022/05/27 00:20:28;;;;;;;;;;;;;;;12.71;100.00;99445.94;5063327;28;20455;-91
2022/05/27 00:22:55;;;;;;;;;;;;;;;12.42;100.00;99453.25;5063150;28;19938;-90
2022/05/27 00:25:22;;;;;;;;;;;;;;;12.50;100.00;99459.53;5113157;28;19924;-91
2022/05/27 00:27:50;;;;;;;;;;;;;;;12.67;100.00;99452.81;5079587;28;20379;-89
2022/05/27 00:30:17;;;;;;;;;;;;;;;12.56;100.00;99446.59;5112737;28;20375;-89
2022/05/27 00:32:44;;;;;;;;;;;;;;;12.32;100.00;99447.84;5063703;28;20287;-91
2022/05/27 00:35:12;;;;;;;;;;;;;;;12.41;100.00;99457.28;5083272;28;19924;-92
2022/05/27 00:40:19;;;;;;;;;;;;;;;12.35;100.00;99450.59;5092366;28;19912;-91
2022/05/27 00:42:47;;;;;;;;;;;;;;;12.12;100.00;99458.97;5108035;28;20013;-92
2022/05/27 00:45:16;;;;;;;;;;;;;;;12.04;100.00;99454.69;5073691;28;19925;-91
2022/05/27 00:47:45;;;;;;;;;;;;;;;12.22;100.00;99454.41;5073905;28;20393;-91
2022/05/27 00:50:15;;;;;;;;;;;;;;;11.96;100.00;99461.63;5073740;28;19924;-90
2022/05/27 00:52:43;;;;;;;;;;;;;;;11.81;100.00;99457.47;5090863;28;20315;-92
2022/05/27 00:55:13;;;;;;;;;;;;;;;12.05;100.00;99470.28;5090480;28;20399;-92
2022/05/27 00:57:44;;;;;;;;;;;;;;;11.98;100.00;99467.59;5074356;28;20386;-92
2022/05/27 01:00:14;;;;;;;;;;;;;;;11.89;100.00;99458.91;5090674;28;19928;-90
2022/05/27 01:02:41;;;;;;;;;;;;;;;11.65;100.00;99471.28;5073500;28;20020;-91
2022/05/27 01:05:09;;;;;;;;;;;;;;;11.67;100.00;99471.66;5073517;28;19932;-91
2022/05/27 01:07:37;;;;;;;;;;;;;;;11.76;100.00;99463.53;5073386;28;19924;-91
2022/05/27 01:10:07;;;;;;;;;;;;;;;11.95;100.00;99467.66;5073184;28;19928;-90
2022/05/27 01:12:46;;;;;;;;;;;;;;;11.80;100.00;99471.88;5056703;28;20023;-91
2022/05/27 01:15:33;;;;;;;;;;;;;;;11.86;100.00;99473.75;5090033;28;19925;-90
2022/05/27 01:18:13;;;;;;;;;;;;;;;11.76;100.00;99465.53;5089819;28;19932;-91
2022/05/27 01:20:56;;;;;;;;;;;;;;;11.56;100.00;99475.75;5073164;28;20022;-89
2022/05/27 01:23:42;;;;;;;;;;;;;;;11.58;100.00;99488.16;5073532;28;19956;-90
2022/05/27 01:26:22;;;;;;;;;;;;;;;11.69;100.00;99479.63;5089688;28;19936;-88
2022/05/27 01:29:10;;;;;;;;;;;;;;;11.74;100.00;99491.13;5089713;28;19935;-90
2022/05/27 01:31:46;;;;;;;;;;;;;;;11.49;100.00;99503.84;5073007;28;20385;-89
2022/05/27 01:34:13;;;;;;;;;;;;;;;11.79;100.00;99499.09;5106449;28;19924;-90
2022/05/27 01:36:47;;;;;;;;;;;;;;;11.60;100.00;99491.28;5039651;28;19929;-90
2022/05/27 01:39:33;;;;;;;;;;;;;;;11.88;100.00;99496.53;5055958;28;19924;-89
2022/05/27 01:42:04;;;;;;;;;;;;;;;11.75;100.00;99495.53;5089858;28;19924;-90
2022/05/27 01:44:33;;;;;;;;;;;;;;;11.75;100.00;99492.75;5089407;28;20283;-89
2022/05/27 01:47:02;;;;;;;;;;;;;;;11.83;100.00;99504.63;5089263;28;20023;-88
2022/05/27 01:49:35;;;;;;;;;;;;;;;11.72;100.00;99504.75;5088379;28;19931;-89
2022/05/27 01:52:14;;;;;;;;;;;;;;;11.90;100.00;99510.94;5058823;28;19970;-88
2022/05/27 01:54:47;;;;;;;;;;;;;;;11.70;100.00;99501.59;5092601;28;19978;-90
2022/05/27 01:57:17;;;;;;;;;;;;;;;11.62;100.00;99504.88;5042684;28;20027;-90
2022/05/27 01:59:58;;;;;;;;;;;;;;;11.81;100.00;99501.47;5042423;28;20013;-89
2022/05/27 02:02:28;;;;;;;;;;;;;;;11.79;100.00;99493.47;5059153;28;19931;-89
2022/05/27 02:04:56;;;;;;;;;;;;;;;11.73;100.00;99502.75;5058958;28;19970;-87
2022/05/27 02:07:27;;;;;;;;;;;;;;;11.43;100.00;99511.94;5042713;28;19972;-89
2022/05/27 02:10:00;;;;;;;;;;;;;;;11.10;100.00;99506.31;5058947;28;20021;-90
2022/05/27 02:12:33;;;;;;;;;;;;;;;11.21;100.00;99513.38;5059550;28;20292;-89
2022/05/27 02:15:07;;;;;;;;;;;;;;;11.11;100.00;99514.31;5075416;28;20024;-89
2022/05/27 02:17:37;;;;;;;;;;;;;;;11.61;100.00;99518.09;5042511;28;19955;-89
2022/05/27 02:20:11;;;;;;;;;;;;;;;11.20;100.00;99528.56;5025676;28;19950;-90
2022/05/27 02:22:41;;;;;;;;;;;;;;;11.49;100.00;99524.25;5058640;28;19929;-90
2022/05/27 02:25:11;;;;;;;;;;;;;;;11.48;100.00;99527.47;5058145;28;19960;-89
2022/05/27 02:27:45;;;;;;;;;;;;;;;11.84;100.00;99532.22;5075213;28;19924;-90
2022/05/27 02:30:14;;;;;;;;;;;;;;;11.47;100.00;99518.25;5091997;28;19958;-90
2022/05/27 02:35:47;;;;;;;;;;;;;;;11.06;100.00;99516.75;5041794;28;19931;-91
2022/05/27 02:38:14;;;;;;;;;;;;;;;11.21;100.00;99509.81;5041909;28;19924;-89
2022/05/27 02:40:50;;;;;;;;;;;;;;;11.09;100.00;99516.72;5091505;28;20068;-89
2022/05/27 02:43:20;;;;;;;;;;;;;;;10.82;100.00;99513.00;5058492;28;20029;-91
2022/05/27 02:45:47;;;;;;;;;;;;;;;10.86;100.00;99502.56;5074919;28;19928;-91
2022/05/27 02:48:23;;;;;;;;;;;;;;;10.81;100.00;99517.78;5041991;28;19931;-91
2022/05/27 02:50:50;;;;;;;;;;;;;;;10.76;100.00;99511.84;5075081;28;19928;-90
2022/05/27 02:53:21;;;;;;;;;;;;;;;10.64;100.00;99512.38;5041740;28;19932;-92
2022/05/27 02:55:54;;;;;;;;;;;;;;;10.67;100.00;99517.13;5074810;28;19925;-91
2022/05/27 02:58:21;;;;;;;;;;;;;;;10.67;100.00;99519.94;5058290;28;19924;-91
2022/05/27 03:00:49;;;;;;;;;;;;;;;10.80;100.00;99526.59;5058107;28;19931;-90
2022/05/27 03:03:16;;;;;;;;;;;;;;;10.42;100.00;99516.56;5090341;28;19924;-90
2022/05/27 03:06:01;;;;;;;;;;;;;;;10.52;100.00;99518.47;5058089;28;19971;-91
2022/05/27 03:08:35;;;;;;;;;;;;;;;10.35;100.00;99511.03;5041635;28;19924;-89
2022/05/27 03:11:18;;;;;;;;;;;;;;;10.44;100.00;99526.13;5074732;28;20011;-89
2022/05/27 03:13:45;;;;;;;;;;;;;;;10.57;100.00;99534.81;5074205;28;19925;-91
2022/05/27 03:16:15;;;;;;;;;;;;;;;10.46;100.00;99534.09;5074489;28;19931;-90
2022/05/27 03:18:45;;;;;;;;;;;;;;;10.56;100.00;99533.19;5074250;28;19924;-89
2022/05/27 03:21:28;;;;;;;;;;;;;;;10.69;100.00;99526.69;5074154;28;20493;-89
2022/05/27 03:23:55;;;;;;;;;;;;;;;10.55;100.00;99540.00;5041075;28;19925;-89
2022/05/27 03:26:25;;;;;;;;;;;;;;;10.51;100.00;99539.25;5041314;28;20019;-90
2022/05/27 03:29:04;;;;;;;;;;;;;;;10.50;100.00;99526.47;5090805;28;20023;-90
2022/05/27 03:31:39;;;;;;;;;;;;;;;10.58;100.00;99541.97;5074223;28;19924;-90
2022/05/27 03:34:06;;;;;;;;;;;;;;;10.38;100.00;99550.13;5056953;28;19947;-90
2022/05/27 03:36:45;;;;;;;;;;;;;;;10.33;100.00;99541.38;5057087;28;20007;-89
2022/05/27 03:39:15;;;;;;;;;;;;;;;10.33;100.00;99541.38;5073301;28;19932;-91
2022/05/27 03:41:45;;;;;;;;;;;;;;;10.47;100.00;99549.63;5057306;28;19932;-89
2022/05/27 03:44:17;;;;;;;;;;;;;;;10.28;100.00;99534.25;5057226;28;19924;-89
2022/05/27 03:46:47;;;;;;;;;;;;;;;10.44;100.00;99558.84;5041466;28;19977;-89
2022/05/27 03:49:14;;;;;;;;;;;;;;;10.37;100.00;99558.91;5090459;28;19925;-90
2022/05/27 03:51:59;;;;;;;;;;;;;;;10.38;100.00;99560.47;5090404;28;19925;-90
2022/05/27 03:54:26;;;;;;;;;;;;;;;10.22;100.00;99569.38;5057067;28;19931;-89
2022/05/27 03:56:54;;;;;;;;;;;;;;;10.35;100.00;99561.31;5023893;28;19924;-91
2022/05/27 03:59:21;;;;;;;;;;;;;;;10.31;100.00;99560.53;5056939;28;20022;-89
2022/05/27 04:01:52;;;;;;;;;;;;;;;10.01;100.00;99563.88;5057266;28;19925;-89
2022/05/27 04:04:24;;;;;;;;;;;;;;;10.24;100.00;99557.78;5073870;28;19925;-91
2022/05/27 04:06:51;;;;;;;;;;;;;;;10.21;100.00;99561.41;5056811;28;19935;-91
2022/05/27 04:09:20;;;;;;;;;;;;;;;10.20;100.00;99563.41;5056901;28;19924;-89
2022/05/27 04:11:47;;;;;;;;;;;;;;;10.39;100.00;99562.09;5073794;28;20287;-91
2022/05/27 04:14:15;;;;;;;;;;;;;;;10.23;100.00;99550.63;5073272;28;19925;-91
2022/05/27 04:16:42;;;;;;;;;;;;;;;10.19;100.00;99566.63;5073478;28;19952;-89
2022/05/27 04:19:09;;;;;;;;;;;;;;;10.39;100.00;99562.88;5056684;28;19966;-90
2022/05/27 04:21:37;;;;;;;;;;;;;;;10.33;100.00;99552.56;5073201;28;19931;-90
2022/05/27 04:24:04;;;;;;;;;;;;;;;10.21;100.00;99575.34;5073488;28;19932;-90
2022/05/27 04:26:32;;;;;;;;;;;;;;;10.35;100.00;99580.84;5040347;28;19924;-91
2022/05/27 04:29:00;;;;;;;;;;;;;;;10.25;100.00;99574.13;5056377;28;20019;-90
2022/05/27 04:31:28;;;;;;;;;;;;;;;10.50;100.00;99585.94;5056887;28;20015;-88
2022/05/27 04:33:55;;;;;;;;;;;;;;;10.55;100.00;99582.72;5040618;28;19974;-91
2022/05/27 04:36:22;;;;;;;;;;;;;;;10.44;100.00;99586.78;5073200;28;19929;-91
2022/05/27 04:38:50;;;;;;;;;;;;;;;10.65;100.00;99586.63;5073120;28;19932;-92
2022/05/27 04:41:17;;;;;;;;;;;;;;;10.51;100.00;99592.34;5023621;28;19929;-91
2022/05/27 04:43:44;;;;;;;;;;;;;;;10.56;100.00;99587.09;5073541;28;19924;-91
2022/05/27 04:46:12;;;;;;;;;;;;;;;10.56;100.00;99583.50;5073079;28;19928;-92
2022/05/27 04:48:39;;;;;;;;;;;;;;;10.71;100.00;99598.94;5023627;28;19924;-90
2022/05/27 04:51:07;;;;;;;;;;;;;;;10.65;100.00;99593.00;5056656;28;20015;-90
2022/05/27 04:53:35;;;;;;;;;;;;;;;10.48;100.00;99585.53;5056158;28;19925;-90
2022/05/27 04:56:02;;;;;;;;;;;;;;;10.74;100.00;99612.09;5056181;28;19963;-91
2022/05/27 04:58:29;;;;;;;;;;;;;;;10.68;100.00;99608.16;5056252;28;19932;-91
2022/05/27 05:00:58;;;;;;;;;;;;;;;10.78;100.00;99612.88;5073000;28;19928;-91
2022/05/27 05:03:25;;;;;;;;;;;;;;;10.77;100.00;99600.09;5089788;28;19924;-89
2022/05/27 05:05:53;;;;;;;;;;;;;;;10.88;100.00;99603.59;5056010;28;20015;-90
2022/05/27 05:08:34;;;;;;;;;;;;;;;10.80;100.00;99610.44;5040090;28;20013;-91
2022/05/27 05:11:02;;;;;;;;;;;;;;;10.80;100.00;99610.44;5056478;28;19954;-92
2022/05/27 05:13:33;;;;;;;;;;;;;;;10.98;100.00;99622.28;5056466;28;19925;-91
2022/05/27 05:16:02;;;;;;;;;;;;;;;11.23;100.00;99631.25;5056034;28;19928;-92
2022/05/27 05:18:29;;;;;;;;;;;;;;;11.01;100.00;99635.47;5056117;28;19925;-90
2022/05/27 05:20:57;;;;;;;;;;;;;;;11.33;100.00;99635.16;5072067;28;19924;-86
2022/05/27 05:23:24;;;;;;;;;;;;;;;11.19;100.00;99633.28;5072120;28;19963;-86
2022/05/27 05:25:51;;;;;;;;;;;;;;;11.51;100.00;99632.97;5074009;28;19943;-86
2022/05/27 05:28:18;;;;;;;;;;;;;;;11.48;100.00;99622.59;5042473;28;19928;-88
2022/05/27 05:30:46;;;;;;;;;;;;;;;11.17;100.00;99627.31;5092821;28;19924;-88
2022/05/27 05:33:13;;;;;;;;;;;;;;;11.34;100.00;99636.72;5059461;28;20061;-89
2022/05/27 05:35:40;;;;;;;;;;;;;;;11.25;100.00;99637.22;5059032;28;19925;-89
2022/05/27 05:38:07;;;;;;;;;;;;;;;11.20;100.00;99632.06;5092939;28;19929;-89
2022/05/27 05:40:34;;;;;;;;;;;;;;;11.17;100.00;99641.28;5042708;28;20015;-89
2022/05/27 05:43:02;;;;;;;;;;;;;;;11.31;100.00;99635.56;5075878;28;19929;-87
2022/05/27 05:45:29;;;;;;;;;;;;;;;11.56;100.00;99641.69;5075567;28;19925;-89
2022/05/27 05:47:56;;;;;;;;;;;;;;;11.49;100.00;99638.97;5042231;28;20374;-89
2022/05/27 05:50:24;;;;;;;;;;;;;;;11.84;100.00;99635.81;5075512;28;19924;-89
2022/05/27 05:52:51;;;;;;;;;;;;;;;11.69;100.00;99631.56;5075388;28;20376;-88
2022/05/27 05:55:19;;;;;;;;;;;;;;;11.91;100.00;99630.13;5075562;28;19924;-89
2022/05/27 05:57:47;;;;;;;;;;;;;;;11.63;100.00;99635.25;5075377;28;19924;-89
2022/05/27 06:00:19;;;;;;;;;;;;;;;11.76;100.00;99627.91;5058664;28;19932;-89
2022/05/27 06:02:47;;;;;;;;;;;;;;;11.46;100.00;99639.00;5092083;28;19931;-89
2022/05/27 06:05:14;;;;;;;;;;;;;;;11.38;100.00;99634.69;5092024;28;19931;-89
2022/05/27 06:07:42;;;;;;;;;;;;;;;11.55;100.00;99647.69;5074906;28;19978;-88
2022/05/27 06:10:10;;;;;;;;;;;;;;;11.39;100.00;99651.06;5108842;28;19925;-89
2022/05/27 06:12:38;;;;;;;;;;;;;;;11.44;100.00;99661.00;5075293;28;19932;-88
2022/05/27 06:15:07;;;;;;;;;;;;;;;11.27;100.00;99657.16;5075155;28;20039;-89
2022/05/27 06:17:35;;;;;;;;;;;;;;;11.66;100.00;99660.38;5055176;28;19925;-88
2022/05/27 06:20:04;;;;;;;;;;;;;;;11.53;100.00;99667.72;5038444;28;19925;-88
2022/05/27 06:22:34;;;;;;;;;;;;;;;11.51;100.00;99670.13;5055024;28;19964;-89
2022/05/27 06:25:02;;;;;;;;;;;;;;;11.77;100.00;99663.09;5054955;28;19929;-88
2022/05/27 06:27:29;;;;;;;;;;;;;;;11.80;100.00;99674.25;5054526;28;20023;-90
2022/05/27 06:35:24;;;;;;;;;;;;;;;11.65;100.00;99672.81;5057591;28;19928;-81
2022/05/27 06:37:51;;;;;;;;;;;;;;;11.64;100.00;99682.44;5075387;28;19932;-83
2022/05/27 06:40:18;;;;;;;;;;;;;;;11.82;100.00;99699.03;5074797;28;19924;-85
2022/05/27 06:42:45;;;;;;;;;;;;;;;12.08;100.00;99707.53;5057738;28;20037;-84
2022/05/27 06:45:13;;;;;;;;;;;;;;;12.29;100.00;99704.47;5057691;28;19925;-85
2022/05/27 06:47:40;;;;;;;;;;;;;;;12.21;100.00;99705.75;5057797;28;19924;-83
2022/05/27 06:50:08;;;;;;;;;;;;;;;12.22;100.00;99712.94;5075658;28;19928;-84
2022/05/27 06:52:37;;;;;;;;;;;;;;;11.87;100.00;99706.97;5074386;28;19946;-84
2022/05/27 06:55:04;;;;;;;;;;;;;;;12.25;100.00;99716.94;5054540;28;19924;-82
2022/05/27 06:57:33;;;;;;;;;;;;;;;12.13;100.00;99712.66;5072189;28;19925;-86
2022/05/27 07:00:00;;;;;;;;;;;;;;;11.93;100.00;99728.50;5055047;28;19924;-86
2022/05/27 07:02:28;;;;;;;;;;;;;;;12.40;100.00;99719.13;5088588;28;19932;-87
2022/05/27 07:04:55;;;;;;;;;;;;;;;12.10;100.00;99726.72;5072188;28;19924;-87
2022/05/27 07:07:25;;;;;;;;;;;;;;;12.10;100.00;99726.72;5088568;28;19928;-86
2022/05/27 07:09:53;;;;;;;;;;;;;;;12.41;100.00;99726.34;5054759;28;19932;-86
2022/05/27 07:12:20;;;;;;;;;;;;;;;12.19;100.00;99724.22;5071424;28;19932;-87
2022/05/27 07:14:47;;;;;;;;;;;;;;;12.38;100.00;99724.38;5071583;28;19928;-86
2022/05/27 07:17:14;;;;;;;;;;;;;;;12.49;100.00;99733.44;5072062;28;19925;-79
2022/05/27 07:19:42;;;;;;;;;;;;;;;12.40;100.00;99730.31;5072481;28;19964;-82
2022/05/27 07:22:10;;;;;;;;;;;;;;;13.61;100.00;99735.75;5071347;28;19925;-83
2022/05/27 07:24:38;;;;;;;;;;;;;;;13.58;100.00;99728.19;5070758;28;19928;-84
2022/05/27 07:27:06;;;;;;;;;;;;;;;13.87;100.00;99724.41;5071241;28;20471;-84
2022/05/27 07:29:33;;;;;;;;;;;;;;;14.27;100.00;99722.47;5071352;28;20480;-84
2022/05/27 07:32:00;;;;;;;;;;;;;;;15.36;100.00;99706.69;5070752;28;19932;-82
2022/05/27 07:34:28;;;;;;;;;;;;;;;15.11;100.00;99716.97;5074922;28;19960;-83
2022/05/27 07:36:55;;;;;;;;;;;;;;;14.74;100.00;99718.22;5073182;28;19924;-82
2022/05/27 07:39:22;;;;;;;;;;;;;;;14.32;100.00;99702.28;5072799;28;19932;-82
2022/05/27 07:41:50;;;;;;;;;;;;;;;13.86;100.00;99720.03;5056338;28;20422;-82
2022/05/27 07:44:17;;;;;;;;;;;;;;;13.51;100.00;99720.66;5072547;28;19994;-82
2022/05/27 07:46:44;;;;;;;;;;;;;;;13.66;100.00;99732.44;5072414;28;19986;-82
2022/05/27 07:49:11;;;;;;;;;;;;;;;13.54;100.00;99730.25;5072129;28;19978;-81
2022/05/27 07:51:59;;;;;;;;;;;;;;;13.92;100.00;99735.16;5089564;28;19924;-82
2022/05/27 07:54:26;;;;;;;;;;;;;;;13.12;100.00;99739.34;5072971;28;20303;-81
2022/05/27 07:56:53;;;;;;;;;;;;;;;13.05;100.00;99742.28;5072847;28;19960;-81
2022/05/27 07:59:20;;;;;;;;;;;;;;;13.22;100.00;99739.22;5072996;28;19932;-81
2022/05/27 08:01:47;;;;;;;;;;;;;;;12.99;100.00;99743.94;5073252;28;20443;-82
2022/05/27 08:04:14;;;;;;;;;;;;;;;13.34;100.00;99744.22;5074109;28;20376;-82
2022/05/27 08:06:42;;;;;;;;;;;;;;;13.23;100.00;99754.03;5106536;28;20390;-83
2022/05/27 08:09:11;;;;;;;;;;;;;;;13.50;100.00;99757.59;5074634;28;19925;-82
2022/05/27 08:11:38;;;;;;;;;;;;;;;13.90;100.00;99748.84;5073263;28;20348;-83
2022/05/27 08:14:06;;;;;;;;;;;;;;;13.65;100.00;99758.94;5039726;28;19990;-82
2022/05/27 08:16:34;;;;;;;;;;;;;;;13.67;100.00;99753.69;5089814;28;20015;-80
2022/05/27 08:19:02;;;;;;;;;;;;;;;13.39;100.00;99745.75;5089529;28;20376;-80
2022/05/27 08:21:30;;;;;;;;;;;;;;;13.28;100.00;99740.31;5072592;28;19924;-81
2022/05/27 08:23:57;;;;;;;;;;;;;;;12.76;100.00;99753.09;5055192;28;19932;-80
2022/05/27 08:26:24;;;;;;;;;;;;;;;13.09;100.00;99757.84;5038658;28;20078;-81
2022/05/27 08:28:51;;;;;;;;;;;;;;;13.25;100.00;99762.81;5072901;28;20384;-80
2022/05/27 08:31:18;;;;;;;;;;;;;;;13.80;100.00;99765.88;5071854;28;19932;-81
2022/05/27 08:39:17;;;;;;;;;;;;;;;14.51;100.00;99752.06;5071712;28;20280;-81
2022/05/27 08:41:49;;;;;;;;;;;;;;;14.77;100.00;99739.09;5072973;28;20295;-82
2022/05/27 08:44:26;;;;;;;;;;;;;;;14.69;100.00;99743.28;5073095;28;19958;-80
2022/05/27 08:47:07;;;;;;;;;;;;;;;15.05;100.00;99749.69;5071706;28;20403;-80
2022/05/27 08:49:37;;;;;;;;;;;;;;;14.64;100.00;99738.97;5071746;28;20346;-81
2022/05/27 08:52:14;;;;;;;;;;;;;;;14.46;100.00;99724.47;5072635;28;20322;-81
2022/05/27 08:54:48;;;;;;;;;;;;;;;14.09;100.00;99747.28;5071780;28;19924;-82
2022/05/27 09:00:05;;;;;;;;;;;;;;;14.67;100.00;99773.84;5073184;28;19925;-82
2022/05/27 09:02:42;;;;;;;;;;;;;;;14.24;100.00;99780.34;5075575;28;19931;-81
2022/05/27 09:05:14;;;;;;;;;;;;;;;14.58;100.00;99777.25;5076740;28;20011;-81
2022/05/27 09:07:51;;;;;;;;;;;;;;;14.30;100.00;99784.25;5058960;28;19931;-81
2022/05/27 09:10:20;;;;;;;;;;;;;;;14.22;100.00;99777.13;5075488;28;19930;-81
2022/05/27 09:12:56;;;;;;;;;;;;;;;14.56;100.00;99776.88;5075282;28;20295;-81
2022/05/27 09:15:26;;;;;;;;;;;;;;;15.02;100.00;99762.63;5076507;28;20373;-81
2022/05/27 09:18:11;;;;;;;;;;;;;;;14.60;100.00;99745.88;5076484;28;19935;-81
2022/05/27 09:20:38;;;;;;;;;;;;;;;14.54;100.00;99753.25;5075195;28;20065;-81
2022/05/27 09:23:14;;;;;;;;;;;;;;;14.57;100.00;99747.53;5076257;28;19924;-81
2022/05/27 09:25:44;;;;;;;;;;;;;;;14.60;100.00;99762.75;5075076;28;20011;-81
2022/05/27 09:28:16;;;;;;;;;;;;;;;14.41;100.00;99762.34;5091924;28;20307;-81
2022/05/27 09:30:43;;;;;;;;;;;;;;;14.22;100.00;99737.00;5108869;28;20399;-81
2022/05/27 09:33:12;;;;;;;;;;;;;;;13.55;100.00;99771.94;5074973;28;20355;-81
2022/05/27 09:35:42;;;;;;;;;;;;;;;13.85;100.00;99752.16;5074826;28;19925;-81
2022/05/27 09:38:15;;;;;;;;;;;;;;;14.07;100.00;99741.31;5076030;28;20387;-81
2022/05/27 09:40:56;;;;;;;;;;;;;;;14.10;100.00;99737.66;5057900;28;19924;-82
2022/05/27 09:43:30;;;;;;;;;;;;;;;14.64;100.00;99738.97;5058188;28;19932;-81
2022/05/27 09:46:00;;;;;;;;;;;;;;;15.07;100.00;99728.31;5074785;28;20272;-81
2022/05/27 09:48:27;;;;;;;;;;;;;;;15.31;100.00;99720.50;5058180;28;19924;-81
2022/05/27 09:50:55;;;;;;;;;;;;;;;15.40;100.00;99732.78;5074364;28;19924;-81
2022/05/27 09:53:27;;;;;;;;;;;;;;;14.78;100.00;99730.22;5075777;28;20379;-81
2022/05/27 09:55:59;;;;;;;;;;;;;;;14.79;100.00;99737.41;5057950;28;19931;-81
2022/05/27 09:58:28;;;;;;;;;;;;;;;14.70;100.00;99740.03;5074637;28;20027;-82
2022/05/27 10:00:55;;;;;;;;;;;;;;;14.46;100.00;99746.97;5057955;28;20325;-81
2022/05/27 10:03:28;;;;;;;;;;;;;;;14.54;100.00;99737.16;5074371;28;19928;-81
2022/05/27 10:06:01;;;;;;;;;;;;;;;14.42;100.00;99737.81;5074690;28;20436;-81
2022/05/27 10:08:33;;;;;;;;;;;;;;;14.64;100.00;99741.78;5075604;28;20011;-81
2022/05/27 10:11:30;;;;;;;;;;;;;;;14.32;100.00;99738.81;5056876;28;20023;-81
2022/05/27 10:14:10;;;;;;;;;;;;;;;14.64;100.00;99746.59;5062388;28;19928;-81
2022/05/27 10:16:39;;;;;;;;;;;;;;;14.68;100.00;99739.66;5041250;28;19928;-81
2022/05/27 10:19:10;;;;;;;;;;;;;;;14.27;100.00;99728.06;5073997;28;19970;-81
2022/05/27 10:21:48;;;;;;;;;;;;;;;14.49;100.00;99762.97;5073930;28;19928;-82
2022/05/27 10:24:18;;;;;;;;;;;;;;;14.89;100.00;99753.25;5057390;28;19931;-82
2022/05/27 10:26:59;;;;;;;;;;;;;;;15.00;100.00;99751.00;5057481;28;19924;-81
2022/05/27 10:29:26;;;;;;;;;;;;;;;14.87;100.00;99747.28;5073943;28;19932;-81
2022/05/27 10:31:54;;;;;;;;;;;;;;;14.71;100.00;99750.03;5073826;28;19924;-81
2022/05/27 10:34:42;;;;;;;;;;;;;;;14.79;100.00;99739.44;5073818;28;19928;-80
2022/05/27 10:37:28;;;;;;;;;;;;;;;14.63;100.00;99745.78;5073828;28;19924;-81
2022/05/27 10:40:02;;;;;;;;;;;;;;;14.39;100.00;99730.25;5074624;28;19932;-81
2022/05/27 10:42:33;;;;;;;;;;;;;;;14.62;100.00;99761.09;5075127;28;19931;-81
2022/05/27 10:45:03;;;;;;;;;;;;;;;14.75;100.00;99781.72;5073609;28;19959;-81
2022/05/27 10:47:49;;;;;;;;;;;;;;;14.67;100.00;99771.84;5073582;28;19931;-81
2022/05/27 10:50:35;;;;;;;;;;;;;;;14.94;100.00;99785.72;5057083;28;19932;-80
2022/05/27 10:53:05;;;;;;;;;;;;;;;14.37;100.00;99774.88;5073529;28;19974;-81
2022/05/27 10:55:51;;;;;;;;;;;;;;;14.55;100.00;99783.75;5073615;28;19924;-81
2022/05/27 11:04:23;;;;;;;;;;;;;;;14.96;100.00;99786.88;5074435;28;19924;-81
2022/05/27 11:07:09;;;;;;;;;;;;;;;14.71;100.00;99768.97;5041316;28;19958;-82
2022/05/27 11:09:40;;;;;;;;;;;;;;;14.88;100.00;99799.50;5072867;28;19925;-81
2022/05/27 11:12:10;;;;;;;;;;;;;;;14.99;100.00;99802.91;5056264;28;19932;-81
2022/05/27 11:17:30;;;;;;;;;;;;;;;14.97;100.00;99788.47;5072510;28;19928;-82
2022/05/27 11:20:16;;;;;;;;;;;;;;;14.96;100.00;99781.25;5039846;28;19925;-81
2022/05/27 11:22:53;;;;;;;;;;;;;;;15.19;100.00;99817.69;5038787;28;19968;-81
2022/05/27 11:25:44;;;;;;;;;;;;;;;15.62;100.00;99803.44;5072779;28;20018;-82
2022/05/27 11:28:18;;;;;;;;;;;;;;;15.37;100.00;99806.84;5072770;28;19925;-81
2022/05/27 11:30:46;;;;;;;;;;;;;;;15.38;100.00;99773.84;5089635;28;20027;-81
2022/05/27 11:33:25;;;;;;;;;;;;;;;15.32;100.00;99801.72;5072592;28;19924;-82
2022/05/27 11:36:11;;;;;;;;;;;;;;;15.46;100.00;99798.63;5072358;28;19978;-81
2022/05/27 11:38:56;;;;;;;;;;;;;;;15.75;100.00;99805.13;5089440;28;20340;-82
2022/05/27 11:41:27;;;;;;;;;;;;;;;16.02;100.00;99813.31;5072504;28;19951;-82
2022/05/27 11:43:55;;;;;;;;;;;;;;;15.93;100.00;99804.69;5072497;28;19930;-82
2022/05/27 11:46:37;;;;;;;;;;;;;;;15.49;100.00;99786.47;5072361;28;20105;-82
2022/05/27 11:49:23;;;;;;;;;;;;;;;15.46;100.00;99815.50;5072491;28;19924;-82
2022/05/27 11:52:08;;;;;;;;;;;;;;;15.18;100.00;99806.88;5072189;28;19931;-82
2022/05/27 11:54:35;;;;;;;;;;;;;;;14.78;100.00;99797.72;5071847;28;20023;-82
2022/05/27 11:57:25;;;;;;;;;;;;;;;14.58;100.00;99794.13;5072294;28;19924;-82
2022/05/27 11:59:57;;;;;;;;;;;;;;;15.24;100.00;99802.31;5067918;28;19924;-82
2022/05/27 12:02:43;;;;;;;;;;;;;;;14.86;100.00;99787.88;5072149;28;19924;-82
2022/05/27 12:05:26;;;;;;;;;;;;;;;15.43;100.00;99793.84;5071900;28;19924;-81
2022/05/27 12:08:05;;;;;;;;;;;;;;;15.69;100.00;99798.41;5072063;28;19967;-82
2022/05/27 12:10:50;;;;;;;;;;;;;;;16.35;100.00;99791.44;5072324;28;19932;-82
2022/05/27 12:13:32;;;;;;;;;;;;;;;15.60;100.00;99803.88;5105949;28;20013;-82
2022/05/27 12:16:02;;;;;;;;;;;;;;;15.74;100.00;99809.16;5071993;28;19925;-82
2022/05/27 12:18:30;;;;;;;;;;;;;;;15.47;100.00;99777.66;5073111;28;19924;-82
2022/05/27 12:20:57;;;;;;;;;;;;;;;15.25;100.00;99787.78;5071888;28;19925;-83
2022/05/27 12:23:26;;;;;;;;;;;;;;;15.14;100.00;99795.72;5055326;28;19990;-82
2022/05/27 12:25:55;;;;;;;;;;;;;;;15.39;100.00;99821.28;5071930;28;19929;-82
2022/05/27 12:28:31;;;;;;;;;;;;;;;15.30;100.00;99778.03;5071895;28;19924;-81
2022/05/27 12:31:00;;;;;;;;;;;;;;;15.45;100.00;99799.81;5073132;28;19924;-82
2022/05/27 12:33:28;;;;;;;;;;;;;;;15.22;100.00;99788.66;5073109;28;19925;-82
2022/05/27 12:36:02;;;;;;;;;;;;;;;15.18;100.00;99793.59;5054664;28;20372;-81
2022/05/27 12:38:30;;;;;;;;;;;;;;;15.38;100.00;99785.13;5055056;28;19924;-81
2022/05/27 12:41:05;;;;;;;;;;;;;;;15.38;100.00;99785.13;5072987;28;19924;-82
2022/05/27 12:43:39;;;;;;;;;;;;;;;15.52;100.00;99796.06;5071528;28;19978;-82
2022/05/27 12:46:14;;;;;;;;;;;;;;;15.24;100.00;99779.78;5071738;28;19928;-82
2022/05/27 12:48:43;;;;;;;;;;;;;;;15.42;100.00;99791.47;5072754;28;19970;-81
2022/05/27 12:51:15;;;;;;;;;;;;;;;15.53;100.00;99809.69;5072888;28;19924;-81
2022/05/27 12:53:44;;;;;;;;;;;;;;;15.57;100.00;99809.63;5071640;28;19930;-82
2022/05/27 13:02:14;;;;;;;;;;;;;;;15.60;100.00;99812.34;5071431;28;20345;-82
2022/05/27 13:04:44;;;;;;;;;;;;;;;15.29;100.00;99813.88;5071276;28;19924;-81
2022/05/27 13:07:11;;;;;;;;;;;;;;;15.05;100.00;99800.34;5071485;28;19946;-81
2022/05/27 13:09:42;;;;;;;;;;;;;;;15.15;100.00;99816.19;5071552;28;19928;-81
2022/05/27 13:12:12;;;;;;;;;;;;;;;15.35;100.00;99805.69;5072491;28;20038;-81
2022/05/27 13:14:45;;;;;;;;;;;;;;;15.61;100.00;99805.50;5071381;28;19924;-81
2022/05/27 13:17:28;;;;;;;;;;;;;;;15.57;100.00;99810.41;5072734;28;19924;-82
2022/05/27 13:20:04;;;;;;;;;;;;;;;15.52;100.00;99822.22;5071402;28;19924;-81
2022/05/27 13:22:35;;;;;;;;;;;;;;;15.34;100.00;99821.78;5088041;28;19924;-81
2022/05/27 13:25:24;;;;;;;;;;;;;;;15.02;100.00;99818.09;5054698;28;19932;-81
2022/05/27 13:27:56;;;;;;;;;;;;;;;15.57;100.00;99818.06;5072659;28;19969;-81
2022/05/27 13:30:40;;;;;;;;;;;;;;;15.67;100.00;99829.09;5072601;28;19939;-81